Alta Sierra, California
Current Conditions -  °F | °C
As of 5:00 AM on Saturday 25 Oct 2014 (Local Time) from KGOO Reporting Station
Broken Clouds Broken Clouds  
Wind Chill: 50°   Ceiling: 1900
Heat Index: 50°   Visibility: 10mi
Dew Point: 48°   Wind: 6mph
Humidity: 94%   Direction: 140°SE
Pressure: 29.98"   Gusts: NA
Location:  39.2183°N, 120.924°W
Report Text: KGOO 251200Z AUTO 14005KT 10SM BKN019 10/09 A2998 RMK AO1
Loading
Personal Weather Stations






























Interactive Weather Map
Tropical Storm Tracking
New forecast layout! Learn more

10-Day Weather Forecast

Advertisements
Track Severe Weather on mobile